Thursday, November 23, 2017, 7:20 AM GMT
Back to Local

CXHF, High Falls , Que.

Location: , , Canada Lat: 45.833
Local Time: 7:20 AM GMT ( 7:20 GMT) Lon: -75.65
Time Zone: GMT Elev: 623 ft

Show me the last for .
Show Coded

Time T Td Feel RH Dir Speed Gust Alt SLP Vis Weather Sky Remarks
2017-11-23 07:00 18 13 - 81 - - - - - 0 None
2017-11-23 06:00 19 14 - 79 - - - - - 0 None
2017-11-23 05:00 20 15 - 80 - - - - - 0 None
2017-11-23 04:00 20 15 - 81 - - - - - 0 None
2017-11-23 03:00 22 15 - 75 - - - - - 0 None
2017-11-23 02:00 22 13 - 68 - - - - - 0 None
2017-11-23 01:00 21 12 - 69 - - - - - 0 None
2017-11-23 00:00 22 14 - 72 - - - - - 0 None
2017-11-22 23:00 23 15 - 69 - - - - - 0 None
2017-11-22 22:00 24 15 - 67 - - - - - 0 None
2017-11-22 21:00 25 19 - 74 - - - - - 0 None
2017-11-22 20:00 26 18 - 72 - - - - - 0 None
2017-11-22 19:00 26 19 - 75 - - - - - 0 None
2017-11-22 18:00 26 19 - 74 - - - - - 0 None
2017-11-22 17:00 28 22 - 79 - - - - - 0 None
2017-11-22 16:00 28 23 - 81 - - - - - 0 None
2017-11-22 15:00 29 23 - 79 - - - - - 0 None
2017-11-22 14:00 30 25 - 82 - - - - - 0 None
2017-11-22 13:00 31 27 - 83 - - - - - 0 None
2017-11-22 12:00 33 31 - 90 - - - - - 0 None
2017-11-22 11:00 32 33 - 105 - - - - - 0 None
2017-11-22 10:00 32 31 - 98 - - - - - 0 None
2017-11-22 09:00 32 32 - 100 - - - - - 0 None
2017-11-22 08:00 33 33 - 99 - - - - - 0 None

Support USWX by starting your Amazon purchase here.